createdAt,value
2023-01-28T00:01:55.356Z,102243.25
2023-01-28T00:04:22.293Z,102241.41
2023-01-28T00:06:49.117Z,102240.56
2023-01-28T00:09:16.013Z,102230.69
2023-01-28T00:11:42.765Z,102231.63
2023-01-28T00:14:12.498Z,102235.28
2023-01-28T00:16:39.765Z,102230.84
2023-01-28T00:19:06.580Z,102237.09
2023-01-28T00:21:33.466Z,102230.06
2023-01-28T00:24:00.465Z,102227.22
2023-01-28T00:26:27.497Z,102217.53
2023-01-28T00:28:54.725Z,102223.78
2023-01-28T00:31:25.346Z,102220.22
2023-01-28T00:33:53.343Z,102212.16
2023-01-28T00:36:22.947Z,102209.41
2023-01-28T00:38:56.121Z,102216.31
2023-01-28T00:41:25.964Z,102204.03
2023-01-28T00:43:53.677Z,102212.16
2023-01-28T00:46:22.979Z,102218.56
2023-01-28T00:48:50.039Z,102214.75
2023-01-28T00:51:20.368Z,102216.66
2023-01-28T00:53:47.586Z,102214.00
2023-01-28T00:56:17.926Z,102220.91
2023-01-28T00:58:45.079Z,102218.41
2023-01-28T01:01:18.729Z,102210.47
2023-01-28T01:03:46.612Z,102209.50
2023-01-28T01:06:15.860Z,102213.84
2023-01-28T01:08:50.599Z,102200.44
2023-01-28T01:11:18.328Z,102211.31
2023-01-28T01:13:45.091Z,102210.47
2023-01-28T01:16:16.751Z,102217.44
2023-01-28T01:18:43.926Z,102218.50
2023-01-28T01:21:21.541Z,102210.47
2023-01-28T01:23:48.873Z,102212.09
2023-01-28T01:26:16.180Z,102211.50
2023-01-28T01:28:43.238Z,102217.53
2023-01-28T01:31:18.313Z,102211.66
2023-01-28T01:33:48.670Z,102205.09
2023-01-28T01:36:18.641Z,102203.34
2023-01-28T01:38:45.509Z,102200.25
2023-01-28T01:41:30.272Z,102195.75
2023-01-28T01:44:04.076Z,102190.31
2023-01-28T01:46:49.565Z,102183.13
2023-01-28T01:49:23.713Z,102189.19
2023-01-28T01:52:16.595Z,102194.72
2023-01-28T01:54:47.672Z,102189.88
2023-01-28T01:57:23.424Z,102192.53
2023-01-28T01:59:51.212Z,102192.53
2023-01-28T02:02:18.272Z,102195.22
2023-01-28T02:04:45.866Z,102188.03
2023-01-28T02:07:16.629Z,102187.19
2023-01-28T02:09:43.465Z,102185.38
2023-01-28T02:12:20.953Z,102186.25
2023-01-28T02:15:03.624Z,102187.78
2023-01-28T02:17:31.627Z,102194.88
2023-01-28T02:20:05.271Z,102191.63
2023-01-28T02:22:56.164Z,102187.97
2023-01-28T02:25:41.331Z,102184.50
2023-01-28T02:28:26.023Z,102173.00
2023-01-28T02:31:25.073Z,102167.47
2023-01-28T02:34:16.680Z,102159.63
2023-01-28T02:36:55.520Z,102164.13
2023-01-28T02:39:32.091Z,102155.09
2023-01-28T02:42:16.519Z,102154.25
2023-01-28T02:44:43.705Z,102149.84
2023-01-28T02:47:31.715Z,102138.44
2023-01-28T02:50:03.828Z,102136.47
2023-01-28T02:53:13.717Z,102143.03
2023-01-28T02:56:09.761Z,102148.19
2023-01-28T02:58:48.318Z,102147.25
2023-01-28T03:01:43.310Z,102149.25
2023-01-28T03:04:21.905Z,102161.53
2023-01-28T03:06:53.711Z,102151.78
2023-01-28T03:09:24.482Z,102142.84
2023-01-28T03:12:20.876Z,102153.66
2023-01-28T03:15:14.939Z,102163.44
2023-01-28T03:18:35.751Z,102161.69
2023-01-28T03:21:41.585Z,102155.38
2023-01-28T03:24:40.658Z,102153.66
2023-01-28T03:27:38.648Z,102146.56
2023-01-28T03:30:36.078Z,102152.00
2023-01-28T03:33:24.096Z,102156.31
2023-01-28T03:36:09.378Z,102159.88
2023-01-28T03:38:42.555Z,102173.72
2023-01-28T03:41:12.752Z,102176.06
2023-01-28T03:43:39.890Z,102171.63
2023-01-28T03:46:06.841Z,102163.72
2023-01-28T03:48:33.691Z,102165.50
2023-01-28T03:51:00.618Z,102183.31
2023-01-28T03:53:28.368Z,102170.84
2023-01-28T03:55:56.848Z,102170.84
2023-01-28T03:58:27.623Z,102157.38
2023-01-28T04:00:54.555Z,102149.41
2023-01-28T04:03:22.479Z,102160.13
2023-01-28T04:06:02.473Z,102163.88
2023-01-28T04:08:29.710Z,102170.84
2023-01-28T04:10:56.793Z,102173.53
2023-01-28T04:13:23.974Z,102185.03
2023-01-28T04:15:51.595Z,102176.91
2023-01-28T04:18:19.735Z,102165.34
2023-01-28T04:20:49.251Z,102183.25
2023-01-28T04:23:16.196Z,102171.06
2023-01-28T04:25:42.941Z,102182.53
2023-01-28T04:28:09.885Z,102174.50
2023-01-28T04:30:36.702Z,102182.53
2023-01-28T04:33:03.511Z,102180.03
2023-01-28T04:35:30.443Z,102177.19
2023-01-28T04:37:57.202Z,102173.72
2023-01-28T04:40:23.966Z,102183.41
2023-01-28T04:42:55.427Z,102177.34
2023-01-28T04:45:23.135Z,102179.09
2023-01-28T04:47:50.358Z,102177.09
2023-01-28T04:50:17.337Z,102176.41
2023-01-28T04:52:44.488Z,102175.53
2023-01-28T04:55:11.834Z,102182.63
2023-01-28T04:57:38.943Z,102178.31
2023-01-28T05:00:06.619Z,102186.09
2023-01-28T05:02:33.438Z,102185.22
2023-01-28T05:05:01.740Z,102194.13
2023-01-28T05:07:28.620Z,102194.22
2023-01-28T05:09:55.381Z,102183.47
2023-01-28T05:12:22.382Z,102180.19
2023-01-28T05:14:49.130Z,102187.13
2023-01-28T05:17:16.124Z,102188.75
2023-01-28T05:19:43.754Z,102187.91
2023-01-28T05:22:10.536Z,102186.16
2023-01-28T05:24:37.381Z,102190.38
2023-01-28T05:27:04.388Z,102185.31
2023-01-28T05:29:31.425Z,102187.91
2023-01-28T05:31:58.265Z,102182.53
2023-01-28T05:34:25.343Z,102195.16
2023-01-28T05:36:52.442Z,102180.03
2023-01-28T05:39:19.531Z,102167.59
2023-01-28T05:41:46.335Z,102176.50
2023-01-28T05:44:13.112Z,102173.13
2023-01-28T05:46:45.447Z,102181.94
2023-01-28T05:49:13.742Z,102173.72
2023-01-28T05:51:41.378Z,102185.03
2023-01-28T05:54:09.245Z,102184.34
2023-01-28T05:56:36.794Z,102185.22
2023-01-28T05:59:05.545Z,102188.84
2023-01-28T06:01:32.746Z,102188.69
2023-01-28T06:04:00.628Z,102182.53
2023-01-28T06:06:27.452Z,102178.81
2023-01-28T06:08:54.316Z,102180.44
2023-01-28T06:11:21.268Z,102175.97
2023-01-28T06:13:48.443Z,102185.03
2023-01-28T06:16:15.451Z,102183.25
2023-01-28T06:18:42.575Z,102186.69
2023-01-28T06:21:09.363Z,102178.66
2023-01-28T06:23:36.241Z,102175.88
2023-01-28T06:26:03.438Z,102170.53
2023-01-28T06:28:30.244Z,102158.06
2023-01-28T06:30:57.103Z,102167.25
2023-01-28T06:33:24.603Z,102168.94
2023-01-28T06:35:51.549Z,102185.22
2023-01-28T06:38:18.714Z,102174.66
2023-01-28T06:40:45.493Z,102177.00
2023-01-28T06:43:12.283Z,102169.91
2023-01-28T06:45:39.213Z,102167.25
2023-01-28T06:48:08.773Z,102169.63
2023-01-28T06:50:35.704Z,102175.19
2023-01-28T06:53:02.480Z,102186.09
2023-01-28T06:55:29.245Z,102184.09
2023-01-28T06:57:56.233Z,102181.13
2023-01-28T07:00:23.229Z,102184.69
2023-01-28T07:02:50.036Z,102184.94
2023-01-28T07:05:17.308Z,102188.25
2023-01-28T07:07:44.912Z,102180.28
2023-01-28T07:10:11.973Z,102178.44
2023-01-28T07:12:39.281Z,102175.88
2023-01-28T07:15:07.182Z,102182.78
2023-01-28T07:17:34.045Z,102181.06
2023-01-28T07:20:00.856Z,102176.47
2023-01-28T07:22:27.819Z,102176.66
2023-01-28T07:24:54.656Z,102180.00
2023-01-28T07:27:21.432Z,102194.28
2023-01-28T07:29:48.181Z,102192.53
2023-01-28T07:32:14.959Z,102197.22
2023-01-28T07:34:43.263Z,102206.81
2023-01-28T07:37:10.751Z,102193.31
2023-01-28T07:39:37.551Z,102192.53
2023-01-28T07:42:04.694Z,102207.69
2023-01-28T07:44:31.486Z,102189.69
2023-01-28T07:46:58.275Z,102196.78
2023-01-28T07:49:25.367Z,102198.88
2023-01-28T07:51:52.780Z,102200.22
2023-01-28T07:54:19.818Z,102208.09
2023-01-28T07:56:46.992Z,102209.06
2023-01-28T07:59:13.783Z,102213.75
2023-01-28T08:01:40.985Z,102204.72
2023-01-28T08:04:07.887Z,102199.13
2023-01-28T08:06:38.014Z,102203.34
2023-01-28T08:09:09.041Z,102209.66
2023-01-28T08:11:39.553Z,102221.16
2023-01-28T08:14:06.850Z,102217.53
2023-01-28T08:16:33.655Z,102222.91
2023-01-28T08:19:00.433Z,102226.44
2023-01-28T08:21:27.400Z,102214.94
2023-01-28T08:23:55.017Z,102212.09
2023-01-28T08:26:21.881Z,102224.34
2023-01-28T08:28:50.617Z,102205.66
2023-01-28T08:31:19.092Z,102213.34
2023-01-28T08:33:45.993Z,102214.41
2023-01-28T08:36:13.029Z,102218.72
2023-01-28T08:38:39.824Z,102228.50
2023-01-28T08:41:06.811Z,102229.09
2023-01-28T08:43:33.712Z,102222.78
2023-01-28T08:46:00.604Z,102211.97
2023-01-28T08:48:27.528Z,102204.84
2023-01-28T08:50:58.734Z,102185.06
2023-01-28T08:53:25.704Z,102199.31
2023-01-28T08:55:54.895Z,102196.34
2023-01-28T08:58:22.050Z,102192.72
2023-01-28T09:00:50.356Z,102201.38
2023-01-28T09:03:18.232Z,102214.88
2023-01-28T09:05:45.091Z,102209.34
2023-01-28T09:08:15.335Z,102210.19
2023-01-28T09:10:42.826Z,102205.69
2023-01-28T09:13:15.693Z,102192.28
2023-01-28T09:15:43.571Z,102189.50
2023-01-28T09:18:10.663Z,102186.66
2023-01-28T09:20:38.539Z,102187.50
2023-01-28T09:23:05.469Z,102191.63
2023-01-28T09:25:32.343Z,102180.06
2023-01-28T09:27:59.509Z,102182.53
2023-01-28T09:30:27.114Z,102199.31
2023-01-28T09:32:56.728Z,102199.22
2023-01-28T09:35:23.492Z,102182.94
2023-01-28T09:37:52.086Z,102197.00
2023-01-28T09:40:34.290Z,102198.47
2023-01-28T09:43:29.284Z,102211.13
2023-01-28T09:45:59.479Z,102197.44
2023-01-28T09:48:38.278Z,102204.50
2023-01-28T09:51:13.652Z,102213.06
2023-01-28T09:53:47.310Z,102208.28
2023-01-28T09:56:36.577Z,102211.75
2023-01-28T09:59:36.183Z,102211.63
2023-01-28T10:02:24.176Z,102212.03
2023-01-28T10:04:59.524Z,102218.94
2023-01-28T10:07:39.227Z,102221.31
2023-01-28T10:10:45.925Z,102219.63
2023-01-28T10:13:43.780Z,102230.25
2023-01-28T10:16:23.986Z,102229.78
2023-01-28T10:19:11.504Z,102224.50
2023-01-28T10:22:13.100Z,102223.66
2023-01-28T10:24:53.052Z,102220.56
2023-01-28T10:27:24.389Z,102228.34
2023-01-28T10:29:53.372Z,102229.31
2023-01-28T10:32:27.099Z,102240.06
2023-01-28T10:34:54.029Z,102239.28
2023-01-28T10:37:21.705Z,102225.66
2023-01-28T10:39:48.789Z,102231.41
2023-01-28T10:42:31.949Z,102219.91
2023-01-28T10:45:08.789Z,102223.16
2023-01-28T10:47:45.317Z,102227.56
2023-01-28T10:50:25.266Z,102217.59
2023-01-28T10:53:01.419Z,102222.59
2023-01-28T10:55:47.659Z,102221.03
2023-01-28T10:58:24.460Z,102227.00
2023-01-28T11:01:00.328Z,102224.88
2023-01-28T11:03:28.056Z,102227.09
2023-01-28T11:05:57.085Z,102225.06
2023-01-28T11:08:27.988Z,102236.69
2023-01-28T11:10:56.723Z,102228.63
2023-01-28T11:13:29.820Z,102226.50
2023-01-28T11:16:06.911Z,102232.81
2023-01-28T11:18:46.625Z,102244.25
2023-01-28T11:21:33.138Z,102231.66
2023-01-28T11:24:05.131Z,102237.94
2023-01-28T11:26:37.520Z,102241.38
2023-01-28T11:29:05.268Z,102246.84
2023-01-28T11:31:44.396Z,102241.06
2023-01-28T11:34:19.241Z,102250.97
2023-01-28T11:37:06.005Z,102256.34
2023-01-28T11:39:32.869Z,102245.41
2023-01-28T11:42:22.829Z,102252.72
2023-01-28T11:44:50.343Z,102244.34
2023-01-28T11:47:35.430Z,102245.84
2023-01-28T11:50:39.386Z,102251.13
2023-01-28T11:53:32.772Z,102250.38
2023-01-28T11:56:25.597Z,102236.75
2023-01-28T11:59:13.804Z,102232.13
2023-01-28T12:01:57.795Z,102226.53
2023-01-28T12:05:01.414Z,102221.75
2023-01-28T12:07:52.433Z,102214.53
2023-01-28T12:10:36.800Z,102202.81
2023-01-28T12:13:21.836Z,102195.19
2023-01-28T12:16:18.932Z,102183.47
2023-01-28T12:19:43.204Z,102190.06
2023-01-28T12:22:35.425Z,102191.13
2023-01-28T12:25:23.528Z,102186.63
2023-01-28T12:27:56.049Z,102175.66
2023-01-28T12:31:02.233Z,102169.19
2023-01-28T12:33:31.684Z,102177.63
2023-01-28T12:36:26.184Z,102170.63
2023-01-28T12:39:16.592Z,102156.88
2023-01-28T12:41:54.428Z,102156.34
2023-01-28T12:44:35.359Z,102146.00
2023-01-28T12:47:17.077Z,102147.56
2023-01-28T12:50:12.418Z,102150.34
2023-01-28T12:52:56.153Z,102156.91
2023-01-28T12:55:44.557Z,102147.97
2023-01-28T12:58:45.737Z,102147.81
2023-01-28T13:01:21.080Z,102141.34
2023-01-28T13:04:35.062Z,102128.88
2023-01-28T13:07:15.965Z,102120.66
2023-01-28T13:09:53.740Z,102123.84
2023-01-28T13:12:22.337Z,102130.00
2023-01-28T13:14:53.228Z,102125.59
2023-01-28T13:17:32.723Z,102121.91
2023-01-28T13:20:00.347Z,102118.22
2023-01-28T13:22:36.825Z,102118.09
2023-01-28T13:25:36.369Z,102107.44
2023-01-28T13:28:07.034Z,102113.75
2023-01-28T13:30:47.824Z,102110.03
2023-01-28T13:33:32.284Z,102102.81
2023-01-28T13:36:25.195Z,102105.16
2023-01-28T13:39:14.502Z,102112.28
2023-01-28T13:41:47.832Z,102115.72
2023-01-28T13:44:34.396Z,102112.88
2023-01-28T13:47:39.844Z,102114.97
2023-01-28T13:50:16.240Z,102110.66
2023-01-28T13:52:56.735Z,102105.16
2023-01-28T13:55:43.508Z,102116.28
2023-01-28T13:58:58.476Z,102120.88
2023-01-28T14:01:43.472Z,102119.81
2023-01-28T14:04:59.721Z,102133.38
2023-01-28T14:08:06.267Z,102139.31
2023-01-28T14:10:56.877Z,102143.50
2023-01-28T14:13:56.813Z,102139.72
2023-01-28T14:17:10.091Z,102143.50
2023-01-28T14:19:38.739Z,102146.09
2023-01-28T14:22:10.729Z,102143.31
2023-01-28T14:24:39.822Z,102143.06
2023-01-28T14:27:36.073Z,102143.31
2023-01-28T14:30:16.917Z,102139.19
2023-01-28T14:32:50.616Z,102137.25
2023-01-28T14:35:32.113Z,102144.38
2023-01-28T14:38:00.935Z,102151.91
2023-01-28T14:40:29.592Z,102139.41
2023-01-28T14:42:56.616Z,102127.66
2023-01-28T14:45:42.814Z,102127.31
2023-01-28T14:48:23.340Z,102137.91
2023-01-28T14:51:16.569Z,102129.91
2023-01-28T14:54:27.096Z,102127.56
2023-01-28T14:57:19.607Z,102122.81
2023-01-28T14:59:54.889Z,102131.53
2023-01-28T15:02:26.792Z,102128.09
2023-01-28T15:04:54.786Z,102130.78
2023-01-28T15:07:28.267Z,102130.16
2023-01-28T15:10:31.733Z,102131.97
2023-01-28T15:13:05.234Z,102134.78
2023-01-28T15:15:39.881Z,102137.69
2023-01-28T15:18:23.329Z,102142.72
2023-01-28T15:20:55.664Z,102150.41
2023-01-28T15:23:29.591Z,102141.69
2023-01-28T15:25:57.193Z,102141.69
2023-01-28T15:28:31.987Z,102150.72
2023-01-28T15:30:59.966Z,102140.94
2023-01-28T15:33:27.413Z,102147.16
2023-01-28T15:35:57.280Z,102146.31
2023-01-28T15:38:28.167Z,102142.03
2023-01-28T15:41:03.069Z,102138.69
2023-01-28T15:43:36.412Z,102142.13
2023-01-28T15:46:04.077Z,102135.00
2023-01-28T15:48:34.441Z,102145.75
2023-01-28T15:51:19.045Z,102143.41
2023-01-28T15:53:50.291Z,102143.19
2023-01-28T15:56:27.956Z,102146.97
2023-01-28T15:58:56.305Z,102143.31
2023-01-28T16:01:24.180Z,102138.88
2023-01-28T16:04:07.123Z,102141.03
2023-01-28T16:06:39.556Z,102137.28
2023-01-28T16:09:26.000Z,102139.22
2023-01-28T16:11:53.361Z,102139.84
2023-01-28T16:14:29.911Z,102139.09
2023-01-28T16:16:57.845Z,102143.31
2023-01-28T16:20:01.134Z,102140.81
2023-01-28T16:22:43.671Z,102148.91
2023-01-28T16:25:31.672Z,102145.47
2023-01-28T16:28:00.358Z,102138.22
2023-01-28T16:30:28.041Z,102138.22
2023-01-28T16:32:58.565Z,102136.63
2023-01-28T16:35:42.546Z,102138.44
2023-01-28T16:38:18.821Z,102133.28
2023-01-28T16:40:47.300Z,102118.97
2023-01-28T16:43:15.980Z,102126.25
2023-01-28T16:45:43.400Z,102120.88
2023-01-28T16:48:10.211Z,102123.56
2023-01-28T16:50:40.614Z,102123.38
2023-01-28T16:53:19.981Z,102126.25
2023-01-28T16:55:50.821Z,102126.25
2023-01-28T16:58:23.765Z,102130.78
2023-01-28T17:00:50.663Z,102125.50
2023-01-28T17:03:17.498Z,102127.25
2023-01-28T17:05:44.596Z,102130.59
2023-01-28T17:08:11.461Z,102124.47
2023-01-28T17:10:38.290Z,102131.66
2023-01-28T17:13:05.183Z,102125.75
2023-01-28T17:15:32.051Z,102133.81
2023-01-28T17:17:58.981Z,102128.44
2023-01-28T17:20:26.235Z,102134.66
2023-01-28T17:22:52.997Z,102124.75
2023-01-28T17:25:20.579Z,102128.44
2023-01-28T17:27:50.352Z,102132.72
2023-01-28T17:30:20.596Z,102133.81
2023-01-28T17:32:47.473Z,102129.38
2023-01-28T17:35:15.863Z,102137.38
2023-01-28T17:37:43.171Z,102131.13
2023-01-28T17:40:12.895Z,102131.03
2023-01-28T17:42:39.992Z,102125.84
2023-01-28T17:45:07.305Z,102128.63
2023-01-28T17:47:34.101Z,102130.13
2023-01-28T17:50:00.924Z,102125.75
2023-01-28T17:52:27.699Z,102121.13
2023-01-28T17:54:54.505Z,102116.47
2023-01-28T17:57:21.466Z,102121.97
2023-01-28T17:59:48.285Z,102117.66
2023-01-28T18:02:15.479Z,102126.50
2023-01-28T18:04:43.647Z,102129.19
2023-01-28T18:07:11.323Z,102125.50
2023-01-28T18:09:43.737Z,102117.56
2023-01-28T18:12:14.620Z,102121.97
2023-01-28T18:14:42.313Z,102120.88
2023-01-28T18:17:09.265Z,102124.66
2023-01-28T18:19:36.394Z,102125.22
2023-01-28T18:22:03.229Z,102122.63
2023-01-28T18:24:30.918Z,102124.47
2023-01-28T18:27:00.152Z,102118.19
2023-01-28T18:29:29.585Z,102115.72
2023-01-28T18:31:58.153Z,102113.03
2023-01-28T18:34:28.253Z,102109.59
2023-01-28T18:36:57.332Z,102104.09
2023-01-28T18:39:26.475Z,102104.22
2023-01-28T18:41:57.063Z,102107.66
2023-01-28T18:44:25.671Z,102101.41
2023-01-28T18:46:54.224Z,102107.84
2023-01-28T18:49:21.335Z,102101.53
2023-01-28T18:51:48.251Z,102091.50
2023-01-28T18:54:16.135Z,102097.84
2023-01-28T18:56:44.559Z,102100.78
2023-01-28T18:59:14.140Z,102111.41
2023-01-28T19:01:48.148Z,102115.94
2023-01-28T19:04:15.893Z,102115.94
2023-01-28T19:06:43.289Z,102120.25
2023-01-28T19:09:13.093Z,102120.34
2023-01-28T19:11:41.675Z,102114.00
2023-01-28T19:14:14.387Z,102115.50
2023-01-28T19:16:41.501Z,102112.94
2023-01-28T19:19:08.599Z,102117.88
2023-01-28T19:21:35.880Z,102114.97
2023-01-28T19:24:09.895Z,102119.59
2023-01-28T19:26:38.163Z,102115.94
2023-01-28T19:29:10.439Z,102110.88
2023-01-28T19:31:38.550Z,102115.19
2023-01-28T19:34:06.272Z,102115.28
2023-01-28T19:36:34.416Z,102107.09
2023-01-28T19:39:08.240Z,102098.19
2023-01-28T19:41:36.984Z,102101.72
2023-01-28T19:44:05.195Z,102101.06
2023-01-28T19:46:33.716Z,102096.69
2023-01-28T19:49:00.597Z,102095.88
2023-01-28T19:51:27.876Z,102095.88
2023-01-28T19:53:55.586Z,102094.84
2023-01-28T19:56:25.490Z,102088.66
2023-01-28T19:58:54.418Z,102091.66
2023-01-28T20:01:29.889Z,102090.25
2023-01-28T20:04:00.380Z,102079.72
2023-01-28T20:06:30.195Z,102094.13
2023-01-28T20:09:07.851Z,102095.88
2023-01-28T20:11:36.027Z,102100.81
2023-01-28T20:14:02.878Z,102114.34
2023-01-28T20:16:33.263Z,102121.47
2023-01-28T20:19:04.040Z,102135.25
2023-01-28T20:21:32.039Z,102132.75
2023-01-28T20:24:01.516Z,102129.88
2023-01-28T20:26:32.058Z,102141.16
2023-01-28T20:29:13.631Z,102146.22
2023-01-28T20:31:42.509Z,102142.44
2023-01-28T20:34:16.263Z,102144.38
2023-01-28T20:36:43.825Z,102145.03
2023-01-28T20:39:10.967Z,102145.13
2023-01-28T20:41:38.092Z,102136.09
2023-01-28T20:44:05.168Z,102131.59
2023-01-28T20:46:33.570Z,102127.06
2023-01-28T20:49:03.177Z,102130.72
2023-01-28T20:51:34.566Z,102122.84
2023-01-28T20:54:02.535Z,102124.78
2023-01-28T20:56:33.196Z,102123.84
2023-01-28T20:59:06.001Z,102130.16
2023-01-28T21:01:36.148Z,102121.91
2023-01-28T21:04:07.283Z,102116.28
2023-01-28T21:06:37.823Z,102113.59
2023-01-28T21:09:05.890Z,102116.94
2023-01-28T21:11:32.845Z,102115.75
2023-01-28T21:13:59.644Z,102111.91
2023-01-28T21:16:27.260Z,102114.78
2023-01-28T21:18:54.186Z,102116.94
2023-01-28T21:21:29.508Z,102118.66
2023-01-28T21:24:00.432Z,102120.41
2023-01-28T21:26:28.295Z,102118.47
2023-01-28T21:28:56.444Z,102116.72
2023-01-28T21:31:25.656Z,102095.44
2023-01-28T21:33:55.355Z,102093.34
2023-01-28T21:36:22.968Z,102090.03
2023-01-28T21:38:58.637Z,102089.06
2023-01-28T21:41:25.802Z,102085.63
2023-01-28T21:43:54.351Z,102082.06
2023-01-28T21:46:22.510Z,102080.44
2023-01-28T21:48:49.752Z,102083.88
2023-01-28T21:51:34.977Z,102091.00
2023-01-28T21:54:03.665Z,102082.19
2023-01-28T21:56:30.452Z,102071.63
2023-01-28T21:59:16.327Z,102079.69
2023-01-28T22:01:45.044Z,102071.84
2023-01-28T22:04:12.970Z,102071.84
2023-01-28T22:06:42.293Z,102070.09
2023-01-28T22:09:14.127Z,102062.13
2023-01-28T22:11:43.542Z,102061.63
2023-01-28T22:14:10.954Z,102067.94
2023-01-28T22:16:38.052Z,102067.28
2023-01-28T22:19:05.741Z,102065.69
2023-01-28T22:21:33.031Z,102067.06
2023-01-28T22:23:59.868Z,102066.97
2023-01-28T22:26:26.834Z,102067.38
2023-01-28T22:28:53.628Z,102063.91
2023-01-28T22:31:20.653Z,102066.41
2023-01-28T22:33:47.599Z,102055.66
2023-01-28T22:36:16.691Z,102053.63
2023-01-28T22:38:45.732Z,102051.78
2023-01-28T22:41:19.849Z,102052.09
2023-01-28T22:43:47.332Z,102058.34
2023-01-28T22:46:15.088Z,102048.44
2023-01-28T22:48:42.127Z,102058.34
2023-01-28T22:51:17.321Z,102058.53
2023-01-28T22:53:45.031Z,102051.03
2023-01-28T22:56:12.339Z,102052.94
2023-01-28T22:58:39.386Z,102055.53
2023-01-28T23:01:07.249Z,102047.56
2023-01-28T23:03:35.217Z,102048.34
2023-01-28T23:06:04.697Z,102051.03
2023-01-28T23:08:32.731Z,102047.38
2023-01-28T23:11:02.563Z,102035.13
2023-01-28T23:13:53.577Z,102033.38
2023-01-28T23:16:38.912Z,102031.53
2023-01-28T23:19:24.181Z,102030.13
2023-01-28T23:22:09.534Z,102030.59
2023-01-28T23:24:36.363Z,102025.63
2023-01-28T23:27:04.079Z,102028.94
2023-01-28T23:29:32.110Z,102025.41
2023-01-28T23:32:09.991Z,102033.56
2023-01-28T23:34:40.785Z,102035.22
2023-01-28T23:37:10.665Z,102028.94
2023-01-28T23:39:37.446Z,102027.25
2023-01-28T23:42:18.859Z,102024.38
2023-01-28T23:44:45.749Z,102015.94
2023-01-28T23:47:12.851Z,102014.88
2023-01-28T23:49:40.622Z,102014.00
2023-01-28T23:52:08.355Z,102012.31
2023-01-28T23:54:35.972Z,102007.97
2023-01-28T23:57:04.153Z,102008.84
2023-01-28T23:59:31.053Z,102006.25
